LRBS/BBU METAR and TAF weather

Enter ICAO airport designator
Station Type Date Time Source
LRBS METAR 2022/07/01 02:00 UTC NOAA

LRBS 010200Z 05005KT 020V090 CAVOK 20/17 Q1014 NOSIG


Station Type Date Time Source
LRBS Decoded METAR 2022/07/01 02:00 UTC NOAA

Bucuresti / Imh, Romania (LRBS) 44-30N 026-08E 91M
Jun 30, 2022 - 10:00 PM EDT / 2022.07.01 0200 UTC
Wind: from the NE (050 degrees) at 6 MPH (5 KT) (direction variable):0
Visibility: greater than 7 mile(s):0
Temperature: 68 F (20 C)
Dew Point: 62 F (17 C)
Relative Humidity: 82%
Pressure (altimeter): 29.94 in. Hg (1014 hPa)
ob: LRBS 010200Z 05005KT 020V090 CAVOK 20/17 Q1014 NOSIG
cycle: 2

Station Type Date Time Source
LRBS TAF 2022/06/30 18:34 UTC NOAA

TAF COR LRBS 301723Z 3018/0118 VRB04KT CAVOK
TEMPO 3018/3020 VRB20G30KT SCT040CB PROB40
TEMPO 0112/0117 VRB20KT 5000 TSRA SCT045CB

Example: see airport list